createdAt,value
2017-04-05T00:00:03.008Z,12.78
2017-04-05T00:01:03.325Z,12.76
2017-04-05T00:02:03.323Z,12.76
2017-04-05T00:03:02.941Z,12.71
2017-04-05T00:04:02.931Z,12.79
2017-04-05T00:05:03.232Z,12.71
2017-04-05T00:06:03.203Z,12.7
2017-04-05T00:07:03.177Z,12.61
2017-04-05T00:08:02.862Z,12.67
2017-04-05T00:09:03.142Z,12.63
2017-04-05T00:10:03.181Z,12.58
2017-04-05T00:11:02.793Z,12.57
2017-04-05T00:12:03.083Z,12.5
2017-04-05T00:13:03.074Z,12.49
2017-04-05T00:14:02.758Z,12.46
2017-04-05T00:15:02.723Z,12.5
2017-04-05T00:16:02.713Z,12.5
2017-04-05T00:17:02.684Z,12.52
2017-04-05T00:18:02.662Z,12.5
2017-04-05T00:19:02.961Z,12.52
2017-04-05T00:20:02.630Z,12.3
2017-04-05T00:21:02.912Z,12.43
2017-04-05T00:22:02.923Z,12.4
2017-04-05T00:23:02.878Z,12.46
2017-04-05T00:24:02.853Z,12.4
2017-04-05T00:25:02.547Z,12.39
2017-04-05T00:26:02.518Z,12.45
2017-04-05T00:27:02.822Z,12.4
2017-04-05T00:28:02.783Z,12.48
2017-04-05T00:29:02.762Z,12.43
2017-04-05T00:30:02.130Z,12.42
2017-04-05T00:31:02.413Z,12.23
2017-04-05T00:32:02.408Z,12.27
2017-04-05T00:33:02.699Z,12.1
2017-04-05T00:34:02.667Z,12.12
2017-04-05T00:35:02.338Z,12.06
2017-04-05T00:36:02.637Z,12.1
2017-04-05T00:37:02.611Z,12.1
2017-04-05T00:38:02.588Z,12.13
2017-04-05T00:39:02.583Z,12.17
2017-04-05T00:40:02.556Z,12.17
2017-04-05T00:41:02.221Z,12.2
2017-04-05T00:42:02.507Z,12.05
2017-04-05T00:43:02.193Z,12.12
2017-04-05T00:44:02.173Z,12.13
2017-04-05T00:45:02.446Z,12.1
2017-04-05T00:46:02.131Z,12.05
2017-04-05T00:47:02.116Z,12.05
2017-04-05T00:48:02.095Z,12.02
2017-04-05T00:49:02.372Z,12.05
2017-04-05T00:50:02.374Z,12.02
2017-04-05T00:51:02.329Z,11.95
2017-04-05T00:52:02.319Z,12.02
2017-04-05T00:53:02.301Z,11.97
2017-04-05T00:54:01.972Z,12.02
2017-04-05T00:55:02.283Z,11.99
2017-04-05T00:56:01.954Z,11.94
2017-04-05T00:57:01.912Z,11.94
2017-04-05T00:58:02.209Z,11.95
2017-04-05T00:59:02.187Z,11.99
2017-04-05T01:00:02.164Z,11.95
2017-04-05T01:01:01.529Z,11.91
2017-04-05T01:02:01.513Z,11.95
2017-04-05T01:03:01.785Z,11.98
2017-04-05T01:04:01.772Z,11.98
2017-04-05T01:05:02.138Z,11.99
2017-04-05T01:06:01.747Z,11.91
2017-04-05T01:07:01.517Z,11.91
2017-04-05T01:08:02.032Z,12.03
2017-04-05T01:09:01.370Z,12.02
2017-04-05T01:10:01.961Z,11.99
2017-04-05T01:11:01.672Z,11.95
2017-04-05T01:12:01.935Z,11.97
2017-04-05T01:13:01.601Z,11.9
2017-04-05T01:14:01.624Z,11.94
2017-04-05T01:15:01.880Z,11.94
2017-04-05T01:16:01.846Z,11.95
2017-04-05T01:17:01.550Z,11.98
2017-04-05T01:18:01.510Z,11.97
2017-04-05T01:19:01.800Z,11.98
2017-04-05T01:20:01.469Z,11.9
2017-04-05T01:21:01.814Z,11.95
2017-04-05T01:22:01.435Z,11.87
2017-04-05T01:23:01.412Z,11.87
2017-04-05T01:24:01.381Z,11.91
2017-04-05T01:25:01.360Z,11.84
2017-04-05T01:26:01.352Z,11.84
2017-04-05T01:27:01.715Z,11.86
2017-04-05T01:28:01.313Z,11.84
2017-04-05T01:29:01.594Z,11.81
2017-04-05T01:30:01.266Z,11.83
2017-04-05T01:31:01.242Z,11.83
2017-04-05T01:32:01.221Z,11.86
2017-04-05T01:33:01.213Z,11.94
2017-04-05T01:34:01.202Z,11.94
2017-04-05T01:35:00.880Z,11.94
2017-04-05T01:36:01.461Z,11.79
2017-04-05T01:37:01.153Z,11.83
2017-04-05T01:38:01.121Z,11.87
2017-04-05T01:39:01.391Z,11.83
2017-04-05T01:40:01.383Z,11.84
2017-04-05T01:41:01.373Z,11.84
2017-04-05T01:42:01.361Z,11.73
2017-04-05T01:43:01.384Z,11.68
2017-04-05T01:44:01.309Z,11.71
2017-04-05T01:45:01.281Z,11.73
2017-04-05T01:46:00.952Z,11.57
2017-04-05T01:47:01.272Z,11.58
2017-04-05T01:48:00.915Z,11.5
2017-04-05T01:49:01.202Z,11.48
2017-04-05T01:50:01.184Z,11.42
2017-04-05T01:51:00.852Z,11.56
2017-04-05T01:52:00.838Z,11.51
2017-04-05T01:53:01.121Z,11.6
2017-04-05T01:54:01.122Z,11.56
2017-04-05T01:55:00.773Z,11.6
2017-04-05T01:56:01.144Z,11.57
2017-04-05T01:57:01.051Z,11.61
2017-04-05T01:58:01.030Z,11.64
2017-04-05T01:59:00.993Z,11.6
2017-04-05T02:00:01.062Z,11.56
2017-04-05T02:01:00.665Z,11.51
2017-04-05T02:02:00.953Z,11.56
2017-04-05T02:03:00.929Z,11.56
2017-04-05T02:04:00.911Z,11.47
2017-04-05T02:05:00.886Z,11.56
2017-04-05T02:06:00.255Z,11.43
2017-04-05T02:07:00.552Z,11.5
2017-04-05T02:08:00.824Z,11.43
2017-04-05T02:09:00.821Z,11.35
2017-04-05T02:10:00.490Z,11.32
2017-04-05T02:11:00.770Z,11.36
2017-04-05T02:12:00.442Z,11.39
2017-04-05T02:13:00.425Z,11.47
2017-04-05T02:14:00.720Z,11.42
2017-04-05T02:15:00.692Z,11.39
2017-04-05T02:16:00.383Z,11.36
2017-04-05T02:17:00.346Z,11.48
2017-04-05T02:18:00.615Z,11.47
2017-04-05T02:19:00.309Z,11.46
2017-04-05T02:20:00.274Z,11.53
2017-04-05T02:21:00.571Z,11.43
2017-04-05T02:22:00.557Z,11.5
2017-04-05T02:23:00.224Z,11.5
2017-04-05T02:24:00.216Z,11.5
2017-04-05T02:25:00.182Z,11.5
2017-04-05T02:26:00.463Z,11.4
2017-04-05T02:27:00.154Z,11.43
2017-04-05T02:28:00.433Z,11.39
2017-04-05T02:28:59.797Z,11.47
2017-04-05T02:30:00.400Z,11.51
2017-04-05T02:31:00.367Z,11.4
2017-04-05T02:32:00.350Z,11.43
2017-04-05T02:33:00.037Z,11.47
2017-04-05T02:34:00.323Z,11.43
2017-04-05T02:35:00.294Z,11.43
2017-04-05T02:36:00.272Z,11.4
2017-04-05T02:36:59.941Z,11.39
2017-04-05T02:38:00.261Z,11.43
2017-04-05T02:38:59.905Z,11.39
2017-04-05T02:40:00.195Z,11.33
2017-04-05T02:40:59.858Z,11.28
2017-04-05T02:41:59.852Z,11.32
2017-04-05T02:43:00.134Z,11.17
2017-04-05T02:44:00.103Z,11.21
2017-04-05T02:44:59.785Z,11.15
2017-04-05T02:45:59.772Z,11.2
2017-04-05T02:46:59.743Z,11.2
2017-04-05T02:48:00.034Z,11.17
2017-04-05T02:49:00.083Z,11.15
2017-04-05T02:49:59.743Z,11.17
2017-04-05T02:50:59.982Z,11.23
2017-04-05T02:51:59.692Z,11.08
2017-04-05T02:52:59.982Z,11.06
2017-04-05T02:53:59.602Z,11.02
2017-04-05T02:54:59.894Z,11.02
2017-04-05T02:55:59.889Z,11
2017-04-05T02:56:59.541Z,10.99
2017-04-05T02:57:59.521Z,10.98
2017-04-05T02:58:59.491Z,10.99
2017-04-05T02:59:59.789Z,10.95
2017-04-05T03:00:59.891Z,10.93
2017-04-05T03:01:59.802Z,10.98
2017-04-05T03:02:59.728Z,10.95
2017-04-05T03:03:59.412Z,10.95
2017-04-05T03:04:59.691Z,10.85
2017-04-05T03:05:59.703Z,10.99
2017-04-05T03:06:59.361Z,10.99
2017-04-05T03:07:59.323Z,10.99
2017-04-05T03:08:59.613Z,10.98
2017-04-05T03:09:58.982Z,11
2017-04-05T03:10:59.617Z,10.9
2017-04-05T03:11:59.543Z,10.93
2017-04-05T03:12:59.542Z,10.82
2017-04-05T03:13:59.512Z,10.8
2017-04-05T03:14:59.243Z,10.67
2017-04-05T03:15:59.156Z,10.67
2017-04-05T03:16:59.442Z,10.67
2017-04-05T03:17:59.423Z,10.56
2017-04-05T03:18:59.099Z,10.6
2017-04-05T03:19:59.074Z,10.71
2017-04-05T03:20:59.079Z,10.64
2017-04-05T03:21:59.439Z,10.57
2017-04-05T03:22:59.364Z,10.53
2017-04-05T03:23:58.991Z,10.59
2017-04-05T03:24:59.280Z,10.56
2017-04-05T03:25:58.954Z,10.56
2017-04-05T03:26:59.252Z,10.57
2017-04-05T03:27:58.912Z,10.57
2017-04-05T03:28:59.227Z,10.53
2017-04-05T03:29:58.873Z,10.55
2017-04-05T03:30:58.879Z,10.64
2017-04-05T03:31:58.832Z,10.63
2017-04-05T03:32:59.123Z,10.62
2017-04-05T03:33:58.492Z,10.56
2017-04-05T03:34:59.081Z,10.55
2017-04-05T03:35:58.761Z,10.48
2017-04-05T03:36:58.752Z,10.52
2017-04-05T03:37:58.721Z,10.3
2017-04-05T03:38:58.999Z,10.29
2017-04-05T03:39:58.982Z,10.3
2017-04-05T03:40:58.972Z,10.36
2017-04-05T03:41:58.648Z,10.37
2017-04-05T03:42:58.902Z,10.41
2017-04-05T03:43:58.602Z,10.41
2017-04-05T03:44:58.252Z,10.36
2017-04-05T03:45:58.239Z,10.38
2017-04-05T03:46:58.523Z,10.44
2017-04-05T03:47:58.501Z,10.48
2017-04-05T03:48:58.481Z,10.55
2017-04-05T03:49:58.478Z,10.33
2017-04-05T03:50:58.752Z,10.34
2017-04-05T03:51:58.741Z,10.15
2017-04-05T03:52:58.094Z,10.18
2017-04-05T03:53:58.712Z,10.13
2017-04-05T03:54:58.673Z,9.93
2017-04-05T03:55:58.669Z,10.03
2017-04-05T03:56:58.021Z,10.1
2017-04-05T03:57:58.354Z,9.9
2017-04-05T03:58:58.585Z,9.87
2017-04-05T03:59:58.335Z,9.78
2017-04-05T04:00:58.265Z,9.87
2017-04-05T04:01:58.282Z,9.85
2017-04-05T04:02:58.502Z,9.87
2017-04-05T04:03:58.521Z,9.86
2017-04-05T04:04:58.461Z,9.79
2017-04-05T04:05:58.192Z,9.95
2017-04-05T04:06:58.425Z,9.89
2017-04-05T04:07:58.462Z,10
2017-04-05T04:08:58.081Z,9.92
2017-04-05T04:09:58.075Z,9.93
2017-04-05T04:10:58.344Z,9.98
2017-04-05T04:11:58.332Z,10.04
2017-04-05T04:12:57.992Z,10.04
2017-04-05T04:13:57.973Z,10.15
2017-04-05T04:14:58.255Z,10.08
2017-04-05T04:15:57.963Z,10.15
2017-04-05T04:16:58.211Z,10.07
2017-04-05T04:17:58.285Z,10.11
2017-04-05T04:18:57.923Z,10.04
2017-04-05T04:19:57.930Z,9.95
2017-04-05T04:20:57.922Z,10.05
2017-04-05T04:21:57.815Z,9.95
2017-04-05T04:22:57.794Z,9.93
2017-04-05T04:23:57.775Z,9.9
2017-04-05T04:24:58.062Z,9.9
2017-04-05T04:25:57.752Z,9.9
2017-04-05T04:26:58.019Z,9.97
2017-04-05T04:27:57.992Z,9.9
2017-04-05T04:28:58.090Z,9.93
2017-04-05T04:29:57.963Z,10.04
2017-04-05T04:30:57.612Z,10.04
2017-04-05T04:31:57.923Z,9.98
2017-04-05T04:32:57.992Z,9.95
2017-04-05T04:33:57.571Z,9.93
2017-04-05T04:34:57.942Z,9.9
2017-04-05T04:35:57.823Z,10.01
2017-04-05T04:36:57.824Z,10.05
2017-04-05T04:37:57.926Z,9.97
2017-04-05T04:38:57.858Z,10.05
2017-04-05T04:39:57.440Z,10.04
2017-04-05T04:40:57.728Z,10.05
2017-04-05T04:41:57.720Z,10.07
2017-04-05T04:42:57.682Z,10.08
2017-04-05T04:43:57.764Z,10
2017-04-05T04:44:57.743Z,10.1
2017-04-05T04:45:57.053Z,10.1
2017-04-05T04:46:56.983Z,9.98
2017-04-05T04:47:57.591Z,10.1
2017-04-05T04:48:57.251Z,9.98
2017-04-05T04:49:57.525Z,10.08
2017-04-05T04:50:57.204Z,10.04
2017-04-05T04:51:57.485Z,10.1
2017-04-05T04:52:57.464Z,10.04
2017-04-05T04:53:57.132Z,10.04
2017-04-05T04:54:57.545Z,10.04
2017-04-05T04:55:56.792Z,9.87
2017-04-05T04:56:57.126Z,9.92
2017-04-05T04:57:57.364Z,9.92
2017-04-05T04:58:57.171Z,9.93
2017-04-05T04:59:57.331Z,9.9
2017-04-05T05:00:57.044Z,9.93
2017-04-05T05:01:56.981Z,9.87
2017-04-05T05:02:57.272Z,10.03
2017-04-05T05:03:56.926Z,10.03
2017-04-05T05:04:57.222Z,10
2017-04-05T05:05:56.582Z,9.95
2017-04-05T05:06:56.931Z,9.98
2017-04-05T05:07:56.550Z,10.05
2017-04-05T05:08:56.833Z,10.11
2017-04-05T05:09:57.110Z,10.11
2017-04-05T05:10:56.778Z,10.13
2017-04-05T05:11:56.454Z,10.16
2017-04-05T05:12:56.445Z,10.22
2017-04-05T05:13:57.057Z,10.15
2017-04-05T05:14:57.005Z,10.21
2017-04-05T05:15:56.695Z,10.26
2017-04-05T05:16:56.673Z,10.3
2017-04-05T05:17:56.952Z,10.34
2017-04-05T05:18:56.314Z,10.3
2017-04-05T05:19:56.902Z,10.3
2017-04-05T05:20:56.882Z,10.3
2017-04-05T05:21:56.563Z,10.34
2017-04-05T05:22:56.845Z,10.3
2017-04-05T05:23:56.833Z,10.33
2017-04-05T05:24:56.493Z,10.33
2017-04-05T05:25:56.786Z,10.34
2017-04-05T05:26:56.167Z,10.41
2017-04-05T05:27:56.121Z,10.38
2017-04-05T05:28:56.741Z,10.3
2017-04-05T05:29:56.092Z,10.16
2017-04-05T05:30:56.694Z,10.18
2017-04-05T05:31:56.673Z,10.22
2017-04-05T05:32:56.631Z,10.34
2017-04-05T05:33:56.010Z,10.37
2017-04-05T05:34:56.601Z,10.44
2017-04-05T05:35:56.574Z,10.46
2017-04-05T05:36:55.945Z,10.46
2017-04-05T05:37:56.253Z,10.46
2017-04-05T05:38:56.234Z,10.53
2017-04-05T05:39:55.942Z,10.52
2017-04-05T05:40:56.172Z,10.48
2017-04-05T05:41:55.942Z,10.55
2017-04-05T05:42:56.442Z,10.52
2017-04-05T05:43:56.411Z,10.55
2017-04-05T05:44:56.404Z,10.56
2017-04-05T05:45:55.773Z,10.52
2017-04-05T05:46:56.370Z,10.62
2017-04-05T05:47:55.828Z,10.55
2017-04-05T05:48:56.323Z,10.55
2017-04-05T05:49:56.091Z,10.43
2017-04-05T05:50:56.282Z,10.53
2017-04-05T05:51:55.681Z,10.55
2017-04-05T05:52:55.923Z,10.55
2017-04-05T05:53:55.751Z,10.67
2017-04-05T05:54:55.887Z,10.67
2017-04-05T05:55:55.960Z,10.81
2017-04-05T05:56:55.861Z,10.84
2017-04-05T05:57:55.562Z,10.92
2017-04-05T05:58:55.503Z,10.87
2017-04-05T05:59:56.094Z,10.95
2017-04-05T06:00:55.821Z,10.99
2017-04-05T06:01:56.063Z,10.99
2017-04-05T06:02:55.731Z,11.02
2017-04-05T06:03:55.714Z,11
2017-04-05T06:04:55.787Z,11.03
2017-04-05T06:05:55.659Z,11.05
2017-04-05T06:06:55.698Z,11.03
2017-04-05T06:07:55.381Z,11
2017-04-05T06:08:55.710Z,10.98
2017-04-05T06:09:55.591Z,10.82
2017-04-05T06:10:55.562Z,10.89
2017-04-05T06:11:55.554Z,10.89
2017-04-05T06:12:55.841Z,10.92
2017-04-05T06:13:55.503Z,10.87
2017-04-05T06:14:55.789Z,11
2017-04-05T06:15:55.781Z,11.03
2017-04-05T06:16:55.546Z,11.02
2017-04-05T06:17:55.731Z,10.99
2017-04-05T06:18:55.724Z,11.08
2017-04-05T06:19:55.513Z,11.03
2017-04-05T06:20:55.682Z,11.03
2017-04-05T06:21:55.647Z,11.1
2017-04-05T06:22:55.642Z,11.13
2017-04-05T06:23:55.611Z,11.15
2017-04-05T06:24:55.384Z,11.24
2017-04-05T06:25:55.262Z,11.28
2017-04-05T06:26:55.569Z,11.23
2017-04-05T06:27:55.532Z,11.28
2017-04-05T06:28:55.516Z,11.28
2017-04-05T06:29:55.517Z,11.29
2017-04-05T06:30:55.495Z,11.38
2017-04-05T06:31:55.469Z,11.43
2017-04-05T06:32:55.434Z,11.39
2017-04-05T06:33:55.114Z,11.43
2017-04-05T06:34:55.415Z,11.47
2017-04-05T06:35:55.403Z,11.46
2017-04-05T06:36:55.052Z,11.46
2017-04-05T06:37:55.069Z,11.4
2017-04-05T06:38:54.701Z,11.51
2017-04-05T06:39:54.988Z,11.61
2017-04-05T06:40:55.295Z,11.58
2017-04-05T06:41:54.963Z,11.72
2017-04-05T06:42:55.234Z,11.72
2017-04-05T06:43:55.227Z,11.83
2017-04-05T06:44:54.893Z,11.83
2017-04-05T06:45:54.571Z,11.86
2017-04-05T06:46:55.160Z,11.83
2017-04-05T06:47:55.140Z,11.79
2017-04-05T06:48:55.121Z,11.81
2017-04-05T06:49:54.792Z,11.84
2017-04-05T06:50:55.098Z,11.86
2017-04-05T06:51:55.060Z,11.83
2017-04-05T06:52:54.753Z,11.86
2017-04-05T06:53:55.034Z,11.81
2017-04-05T06:54:55.022Z,11.86
2017-04-05T06:55:54.682Z,11.71
2017-04-05T06:56:54.980Z,11.58
2017-04-05T06:57:55.282Z,11.6
2017-04-05T06:58:54.938Z,11.69
2017-04-05T06:59:54.912Z,11.58
2017-04-05T07:00:54.892Z,11.32
2017-04-05T07:01:54.565Z,11.23
2017-04-05T07:02:54.852Z,11.13
2017-04-05T07:03:54.831Z,11.11
2017-04-05T07:04:54.500Z,11.18
2017-04-05T07:05:54.481Z,11.17
2017-04-05T07:06:54.171Z,11.21
2017-04-05T07:07:54.771Z,11.21
2017-04-05T07:08:54.732Z,11.32
2017-04-05T07:09:54.120Z,11.38
2017-04-05T07:10:54.417Z,11.43
2017-04-05T07:11:54.690Z,11.33
2017-04-05T07:12:54.353Z,11.17
2017-04-05T07:13:54.327Z,11.18
2017-04-05T07:14:54.620Z,11.21
2017-04-05T07:15:54.064Z,11.23
2017-04-05T07:16:54.276Z,11.24
2017-04-05T07:17:54.581Z,11.13
2017-04-05T07:18:54.553Z,11.15
2017-04-05T07:19:54.229Z,11.17
2017-04-05T07:20:54.211Z,11.13
2017-04-05T07:21:54.182Z,11.03
2017-04-05T07:22:54.169Z,11.03
2017-04-05T07:23:54.151Z,11.11
2017-04-05T07:24:54.424Z,11.14
2017-04-05T07:25:54.111Z,11.18
2017-04-05T07:26:54.385Z,11.05
2017-04-05T07:27:54.369Z,11.14
2017-04-05T07:28:54.040Z,11.13
2017-04-05T07:29:54.330Z,11.06
2017-04-05T07:30:54.021Z,11.1
2017-04-05T07:31:54.291Z,11.08
2017-04-05T07:32:54.280Z,11.17
2017-04-05T07:33:53.947Z,11.11
2017-04-05T07:34:53.921Z,11.13
2017-04-05T07:35:54.222Z,11.14
2017-04-05T07:36:53.891Z,11.24
2017-04-05T07:37:54.172Z,11.18
2017-04-05T07:38:54.157Z,11.26
2017-04-05T07:39:53.840Z,11.18
2017-04-05T07:40:54.108Z,11.26
2017-04-05T07:41:54.101Z,11.46
2017-04-05T07:42:53.452Z,11.51
2017-04-05T07:43:54.061Z,11.6
2017-04-05T07:44:54.029Z,11.58
2017-04-05T07:45:54.018Z,11.56
2017-04-05T07:46:53.691Z,11.6
2017-04-05T07:47:53.664Z,11.6
2017-04-05T07:48:53.661Z,11.75
2017-04-05T07:49:53.930Z,11.75
2017-04-05T07:50:53.919Z,11.75
2017-04-05T07:51:53.900Z,11.5
2017-04-05T07:52:53.270Z,11.48
2017-04-05T07:53:53.552Z,11.58
2017-04-05T07:54:53.540Z,11.69
2017-04-05T07:55:53.831Z,11.72
2017-04-05T07:56:53.587Z,11.81
2017-04-05T07:57:53.487Z,11.86
2017-04-05T07:58:53.763Z,12.03
2017-04-05T07:59:53.740Z,12.37
2017-04-05T08:00:53.421Z,12.4
2017-04-05T08:01:53.721Z,12.57
2017-04-05T08:02:53.691Z,12.76
2017-04-05T08:03:53.361Z,12.73
2017-04-05T08:04:53.352Z,12.7
2017-04-05T08:05:53.333Z,12.7
2017-04-05T08:06:53.621Z,12.88
2017-04-05T08:07:53.305Z,13.19
2017-04-05T08:08:53.591Z,13.23
2017-04-05T08:09:53.281Z,13.35
2017-04-05T08:10:53.234Z,13.52
2017-04-05T08:11:53.234Z,13.74
2017-04-05T08:12:53.223Z,13.72
2017-04-05T08:13:53.518Z,13.81
2017-04-05T08:14:53.482Z,13.8
2017-04-05T08:15:53.461Z,13.78
2017-04-05T08:16:53.468Z,13.59
2017-04-05T08:17:53.111Z,13.55
2017-04-05T08:18:53.116Z,13.33
2017-04-05T08:19:53.091Z,13.37
2017-04-05T08:20:53.116Z,13.25
2017-04-05T08:21:53.366Z,13.15
2017-04-05T08:22:53.355Z,13.03
2017-04-05T08:23:53.322Z,13.01
2017-04-05T08:24:53.305Z,13.08
2017-04-05T08:25:53.285Z,12.98
2017-04-05T08:26:52.962Z,12.88
2017-04-05T08:27:53.246Z,12.71
2017-04-05T08:28:53.244Z,12.74
2017-04-05T08:29:53.234Z,12.81
2017-04-05T08:30:53.202Z,12.63
2017-04-05T08:31:53.183Z,12.5
2017-04-05T08:32:53.173Z,12.58
2017-04-05T08:33:53.158Z,12.46
2017-04-05T08:34:53.126Z,12.39
2017-04-05T08:35:52.796Z,12.35
2017-04-05T08:36:53.103Z,12.42
2017-04-05T08:37:53.080Z,12.43
2017-04-05T08:38:52.440Z,12.49
2017-04-05T08:39:53.041Z,12.64
2017-04-05T08:40:53.024Z,12.7
2017-04-05T08:41:52.998Z,12.7
2017-04-05T08:42:52.988Z,12.94
2017-04-05T08:43:52.673Z,12.83
2017-04-05T08:44:52.958Z,12.98
2017-04-05T08:45:52.614Z,12.96
2017-04-05T08:46:52.606Z,12.78
2017-04-05T08:47:52.606Z,12.63
2017-04-05T08:48:52.875Z,12.68
2017-04-05T08:49:52.554Z,12.71
2017-04-05T08:50:52.540Z,12.71
2017-04-05T08:51:52.813Z,12.86
2017-04-05T08:52:52.509Z,12.96
2017-04-05T08:53:52.464Z,13.07
2017-04-05T08:54:52.165Z,13.16
2017-04-05T08:55:52.475Z,13.19
2017-04-05T08:56:52.720Z,13.22
2017-04-05T08:57:52.713Z,13.16
2017-04-05T08:58:52.683Z,13.26
2017-04-05T08:59:52.682Z,13.23
2017-04-05T09:00:52.654Z,13.19
2017-04-05T09:01:52.670Z,13.11
2017-04-05T09:02:52.634Z,13.04
2017-04-05T09:03:52.591Z,13.11
2017-04-05T09:04:52.271Z,13.26
2017-04-05T09:05:52.254Z,13.22
2017-04-05T09:06:52.537Z,13.22
2017-04-05T09:07:52.515Z,13.21
2017-04-05T09:08:52.508Z,13.19
2017-04-05T09:09:52.274Z,13.22
2017-04-05T09:10:52.477Z,13.37
2017-04-05T09:11:52.175Z,13.21
2017-04-05T09:12:51.816Z,13.21
2017-04-05T09:13:51.826Z,13.22
2017-04-05T09:14:52.395Z,13.37
2017-04-05T09:15:52.378Z,13.49
2017-04-05T09:16:52.055Z,13.72
2017-04-05T09:17:52.071Z,13.96
2017-04-05T09:18:52.034Z,14.13
2017-04-05T09:19:52.323Z,14.38
2017-04-05T09:20:52.033Z,14.7
2017-04-05T09:21:52.414Z,14.88
2017-04-05T09:22:51.657Z,14.96
2017-04-05T09:23:52.246Z,15.06
2017-04-05T09:24:52.237Z,15.27
2017-04-05T09:25:51.944Z,15.46
2017-04-05T09:26:52.283Z,15.61
2017-04-05T09:27:52.357Z,15.98
2017-04-05T09:28:51.973Z,16.21
2017-04-05T09:29:51.845Z,16.16
2017-04-05T09:30:52.146Z,16.1
2017-04-05T09:31:52.244Z,16.26
2017-04-05T09:32:51.805Z,16.6
2017-04-05T09:33:52.105Z,16.9
2017-04-05T09:34:51.895Z,17.21
2017-04-05T09:35:51.878Z,17.44
2017-04-05T09:36:52.065Z,17.49
2017-04-05T09:37:52.166Z,17.6
2017-04-05T09:38:51.783Z,17.62
2017-04-05T09:39:52.014Z,17.83
2017-04-05T09:40:51.703Z,17.98
2017-04-05T09:41:51.753Z,18.04
2017-04-05T09:42:51.709Z,18.1
2017-04-05T09:43:51.673Z,18.04
2017-04-05T09:44:51.654Z,17.8
2017-04-05T09:45:52.080Z,17.75
2017-04-05T09:46:51.725Z,17.68
2017-04-05T09:47:51.988Z,17.77
2017-04-05T09:48:51.623Z,17.77
2017-04-05T09:49:51.302Z,17.92
2017-04-05T09:50:51.633Z,17.83
2017-04-05T09:51:51.590Z,17.86
2017-04-05T09:52:51.895Z,17.87
2017-04-05T09:53:51.566Z,18
2017-04-05T09:54:51.874Z,17.96
2017-04-05T09:55:51.546Z,18.08
2017-04-05T09:56:51.847Z,18.12
2017-04-05T09:57:51.512Z,17.85
2017-04-05T09:58:51.515Z,18.15
2017-04-05T09:59:51.184Z,18.26
2017-04-05T10:00:51.814Z,18.48
2017-04-05T10:01:51.483Z,18.45
2017-04-05T10:02:51.464Z,18.44
2017-04-05T10:03:51.756Z,18.5
2017-04-05T10:04:51.744Z,18.65
2017-04-05T10:05:51.774Z,18.7
2017-04-05T10:06:51.437Z,18.82
2017-04-05T10:07:51.728Z,18.9
2017-04-05T10:08:51.408Z,19.07
2017-04-05T10:09:51.697Z,19.22
2017-04-05T10:10:51.675Z,19.43
2017-04-05T10:11:51.677Z,19.55
2017-04-05T10:12:51.655Z,19.73
2017-04-05T10:13:51.663Z,19.7
2017-04-05T10:14:51.643Z,19.31
2017-04-05T10:15:51.386Z,19.21
2017-04-05T10:16:51.309Z,18.88
2017-04-05T10:17:51.600Z,19.14
2017-04-05T10:18:51.293Z,19.38
2017-04-05T10:19:50.974Z,19.59
2017-04-05T10:20:51.576Z,19.53
2017-04-05T10:21:51.551Z,19.74
2017-04-05T10:22:51.247Z,19.88
2017-04-05T10:23:51.284Z,20.13
2017-04-05T10:24:51.536Z,20.4
2017-04-05T10:25:51.250Z,20.64
2017-04-05T10:26:51.203Z,20.54
2017-04-05T10:27:51.531Z,20.48
2017-04-05T10:28:51.183Z,19.93
2017-04-05T10:29:51.165Z,19.83
2017-04-05T10:30:50.866Z,20.01
2017-04-05T10:31:51.553Z,20.22
2017-04-05T10:32:50.854Z,20.54
2017-04-05T10:33:51.134Z,20.52
2017-04-05T10:34:51.551Z,20.26
2017-04-05T10:35:51.123Z,20.18
2017-04-05T10:36:51.093Z,20.11
2017-04-05T10:37:50.783Z,19.61
2017-04-05T10:38:51.069Z,19.3
2017-04-05T10:39:51.055Z,19.25
2017-04-05T10:40:51.049Z,19.49
2017-04-05T10:41:51.359Z,19.41
2017-04-05T10:42:51.034Z,19.67
2017-04-05T10:43:51.335Z,19.44
2017-04-05T10:44:51.375Z,18.9
2017-04-05T10:45:51.293Z,18.99
2017-04-05T10:46:51.003Z,19.19
2017-04-05T10:47:51.275Z,19.06
2017-04-05T10:48:50.965Z,19.22
2017-04-05T10:49:50.648Z,19.37
2017-04-05T10:50:50.647Z,19.22
2017-04-05T10:51:51.240Z,19.23
2017-04-05T10:52:51.213Z,19.3
2017-04-05T10:53:50.903Z,19.71
2017-04-05T10:54:50.900Z,19.89
2017-04-05T10:55:51.194Z,19.96
2017-04-05T10:56:50.872Z,19.96
2017-04-05T10:57:50.846Z,19.89
2017-04-05T10:58:50.848Z,19.95
2017-04-05T10:59:51.133Z,20.06
2017-04-05T11:00:50.828Z,20.14
2017-04-05T11:01:50.825Z,20.04
2017-04-05T11:02:50.494Z,19.78
2017-04-05T11:03:50.802Z,19.7
2017-04-05T11:04:50.787Z,19.43
2017-04-05T11:05:50.762Z,19.63
2017-04-05T11:06:51.050Z,19.71
2017-04-05T11:07:51.041Z,19.69
2017-04-05T11:08:50.729Z,19.74
2017-04-05T11:09:51.012Z,19.49
2017-04-05T11:10:50.696Z,19.22
2017-04-05T11:11:51.001Z,18.73
2017-04-05T11:12:50.984Z,18.74
2017-04-05T11:13:50.667Z,18.66
2017-04-05T11:14:50.954Z,18.42
2017-04-05T11:15:50.643Z,18.32
2017-04-05T11:16:50.942Z,18.11
2017-04-05T11:17:50.913Z,17.89
2017-04-05T11:18:50.913Z,17.39
2017-04-05T11:19:50.894Z,17.39
2017-04-05T11:20:50.592Z,17.31
2017-04-05T11:21:50.883Z,17.19
2017-04-05T11:22:50.566Z,17.16
2017-04-05T11:23:50.853Z,17.18
2017-04-05T11:24:50.536Z,17.21
2017-04-05T11:25:50.820Z,17.45
2017-04-05T11:26:50.803Z,17.64
2017-04-05T11:27:50.802Z,18.18
2017-04-05T11:28:50.785Z,18.45
2017-04-05T11:29:50.480Z,18.56
2017-04-05T11:30:50.744Z,18.55
2017-04-05T11:31:50.744Z,18.96
2017-04-05T11:32:50.725Z,19.44
2017-04-05T11:33:50.705Z,19.86
2017-04-05T11:34:50.706Z,20.14
2017-04-05T11:35:50.683Z,19.96
2017-04-05T11:36:50.661Z,20.03
2017-04-05T11:37:50.676Z,20.07
2017-04-05T11:38:50.647Z,20.23
2017-04-05T11:39:50.757Z,20.33
2017-04-05T11:40:50.312Z,20.08
2017-04-05T11:41:50.613Z,19.78
2017-04-05T11:42:50.592Z,19.66
2017-04-05T11:43:50.672Z,19.25
2017-04-05T11:44:50.274Z,18.66
2017-04-05T11:45:50.673Z,18.19
2017-04-05T11:46:50.223Z,18.14
2017-04-05T11:47:50.226Z,18.04
2017-04-05T11:48:50.212Z,17.89
2017-04-05T11:49:50.507Z,17.93
2017-04-05T11:50:50.177Z,17.55
2017-04-05T11:51:50.485Z,17.55
2017-04-05T11:52:50.489Z,17.46
2017-04-05T11:53:50.194Z,17.65
2017-04-05T11:54:50.137Z,17.98
2017-04-05T11:55:50.231Z,18.65
2017-04-05T11:56:50.098Z,18.7
2017-04-05T11:57:50.165Z,18.66
2017-04-05T11:58:50.387Z,18.37
2017-04-05T11:59:50.394Z,18.27
2017-04-05T12:00:50.054Z,17.98
2017-04-05T12:01:50.345Z,17.86
2017-04-05T12:02:50.404Z,18.08
2017-04-05T12:03:50.384Z,18.02
2017-04-05T12:04:50.305Z,18.2
2017-04-05T12:05:50.338Z,18.55
2017-04-05T12:06:50.303Z,18.59
2017-04-05T12:07:50.313Z,18.41
2017-04-05T12:08:49.930Z,18.4
2017-04-05T12:09:50.237Z,18.35
2017-04-05T12:10:50.272Z,18.25
2017-04-05T12:11:49.900Z,17.96
2017-04-05T12:12:50.205Z,17.77
2017-04-05T12:13:50.225Z,17.58
2017-04-05T12:14:49.865Z,17.68
2017-04-05T12:15:50.154Z,18.14
2017-04-05T12:16:50.124Z,18.67
2017-04-05T12:17:49.804Z,19.12
2017-04-05T12:18:49.793Z,19.67
2017-04-05T12:19:50.103Z,19.95
2017-04-05T12:20:50.072Z,19.98
2017-04-05T12:21:50.085Z,19.95
2017-04-05T12:22:50.051Z,19.8
2017-04-05T12:23:49.736Z,19.43
2017-04-05T12:24:49.719Z,19.23
2017-04-05T12:25:49.706Z,19.06
2017-04-05T12:26:50.004Z,18.78
2017-04-05T12:27:49.675Z,18.59
2017-04-05T12:28:49.982Z,18.5
2017-04-05T12:29:49.951Z,18.35
2017-04-05T12:30:49.644Z,18.19
2017-04-05T12:31:49.942Z,18.18
2017-04-05T12:32:49.923Z,18.02
2017-04-05T12:33:49.599Z,17.77
2017-04-05T12:34:49.888Z,17.6
2017-04-05T12:35:49.884Z,17.54
2017-04-05T12:36:49.613Z,17.64
2017-04-05T12:37:49.225Z,17.44
2017-04-05T12:38:49.834Z,17.62
2017-04-05T12:39:49.504Z,17.82
2017-04-05T12:40:49.496Z,17.75
2017-04-05T12:41:49.784Z,17.98
2017-04-05T12:44:49.446Z,17.98
2017-04-05T12:45:49.730Z,17.82
2017-04-05T12:46:49.414Z,17.78
2017-04-05T12:47:49.696Z,17.6
2017-04-05T12:48:49.373Z,17.49
2017-04-05T12:49:49.436Z,17.37
2017-04-05T12:50:49.347Z,17.44
2017-04-05T12:51:49.404Z,17.56
2017-04-05T12:52:49.644Z,17.82
2017-04-05T12:53:49.310Z,18.1
2017-04-05T12:54:49.623Z,18.14
2017-04-05T12:55:49.595Z,18.12
2017-04-05T12:56:49.265Z,17.98
2017-04-05T12:57:49.250Z,17.67
2017-04-05T12:58:49.225Z,17.51